createdAt,value
2023-04-16T00:01:48.621Z,75.13
2023-04-16T00:04:50.630Z,75.00
2023-04-16T00:07:53.010Z,75.29
2023-04-16T00:10:54.947Z,75.09
2023-04-16T00:13:56.868Z,75.32
2023-04-16T00:16:58.822Z,75.29
2023-04-16T00:20:00.786Z,75.51
2023-04-16T00:23:02.762Z,75.55
2023-04-16T00:26:04.952Z,75.96
2023-04-16T00:29:07.205Z,75.96
2023-04-16T00:32:09.320Z,75.93
2023-04-16T00:35:11.261Z,76.02
2023-04-16T00:38:14.394Z,76.23
2023-04-16T00:41:16.543Z,75.77
2023-04-16T00:44:18.438Z,75.90
2023-04-16T00:47:21.831Z,75.90
2023-04-16T00:50:23.972Z,76.13
2023-04-16T00:53:26.101Z,76.01
2023-04-16T00:56:28.595Z,75.74
2023-04-16T00:59:30.771Z,75.89
2023-04-16T01:02:34.374Z,75.93
2023-04-16T01:05:37.010Z,76.10
2023-04-16T01:08:39.313Z,76.38
2023-04-16T01:11:41.238Z,76.52
2023-04-16T01:14:43.208Z,76.60
2023-04-16T01:17:48.430Z,76.98
2023-04-16T01:20:51.415Z,76.65
2023-04-16T01:23:53.178Z,76.91
2023-04-16T01:26:55.085Z,76.84
2023-04-16T01:29:57.132Z,76.72
2023-04-16T01:33:11.446Z,77.14
2023-04-16T01:36:13.518Z,77.34
2023-04-16T01:39:16.635Z,76.97
2023-04-16T01:42:18.540Z,76.70
2023-04-16T01:45:20.954Z,77.11
2023-04-16T01:48:23.647Z,77.31
2023-04-16T01:51:25.573Z,77.19
2023-04-16T01:54:27.470Z,77.84
2023-04-16T01:57:29.575Z,77.78
2023-04-16T02:00:31.622Z,77.58
2023-04-16T02:03:34.382Z,77.98
2023-04-16T02:06:36.483Z,77.97
2023-04-16T02:09:40.369Z,78.37
2023-04-16T02:12:42.410Z,78.45
2023-04-16T02:15:49.426Z,78.52
2023-04-16T02:18:56.031Z,78.72
2023-04-16T02:22:01.538Z,78.81
2023-04-16T02:25:03.710Z,78.84
2023-04-16T02:28:06.381Z,79.07
2023-04-16T02:31:13.288Z,79.18
2023-04-16T02:34:19.102Z,79.02
2023-04-16T02:37:21.095Z,79.44
2023-04-16T02:40:22.936Z,79.23
2023-04-16T02:43:24.894Z,79.71
2023-04-16T02:46:26.916Z,79.84
2023-04-16T02:49:28.909Z,80.11
2023-04-16T02:52:32.396Z,80.78
2023-04-16T02:55:34.313Z,80.59
2023-04-16T02:58:36.210Z,81.17
2023-04-16T03:01:38.254Z,81.17
2023-04-16T03:04:40.393Z,80.58
2023-04-16T03:07:42.300Z,81.25
2023-04-16T03:10:44.155Z,80.87
2023-04-16T03:13:46.177Z,81.16
2023-04-16T03:16:48.133Z,81.20
2023-04-16T03:19:50.987Z,80.78
2023-04-16T03:22:54.558Z,81.51
2023-04-16T03:25:56.445Z,81.10
2023-04-16T03:29:00.047Z,81.81
2023-04-16T03:32:04.084Z,81.19
2023-04-16T03:35:07.653Z,81.15
2023-04-16T03:38:09.956Z,81.42
2023-04-16T03:41:12.653Z,81.28
2023-04-16T03:44:14.606Z,80.96
2023-04-16T03:47:17.312Z,80.94
2023-04-16T03:50:20.579Z,81.06
2023-04-16T03:53:23.095Z,80.83
2023-04-16T03:56:25.249Z,80.62
2023-04-16T03:59:28.298Z,80.86
2023-04-16T04:02:30.572Z,80.99
2023-04-16T04:05:37.083Z,80.47
2023-04-16T04:08:39.363Z,80.14
2023-04-16T04:11:42.679Z,80.31
2023-04-16T04:14:44.624Z,80.24
2023-04-16T04:17:46.590Z,79.98
2023-04-16T04:20:48.647Z,79.89
2023-04-16T04:23:55.580Z,78.52
2023-04-16T04:26:58.712Z,77.71
2023-04-16T04:30:00.825Z,76.12
2023-04-16T04:33:03.192Z,75.22
2023-04-16T04:36:05.349Z,74.58
2023-04-16T04:39:08.897Z,73.68
2023-04-16T04:42:11.652Z,73.12
2023-04-16T04:45:14.352Z,72.57
2023-04-16T04:48:17.658Z,72.60
2023-04-16T04:51:19.859Z,72.44
2023-04-16T04:54:22.616Z,72.42
2023-04-16T04:57:24.717Z,72.54
2023-04-16T05:00:29.484Z,72.16
2023-04-16T05:03:32.109Z,71.73
2023-04-16T05:06:33.979Z,71.86
2023-04-16T05:09:36.020Z,71.06
2023-04-16T05:12:37.864Z,70.23
2023-04-16T05:15:39.761Z,69.41
2023-04-16T05:18:41.940Z,67.79
2023-04-16T05:21:43.781Z,66.81
2023-04-16T05:24:45.858Z,66.13
2023-04-16T05:27:47.723Z,65.87
2023-04-16T05:30:49.701Z,65.54
2023-04-16T05:33:51.553Z,64.60
2023-04-16T05:36:53.352Z,64.67
2023-04-16T05:39:55.247Z,64.20
2023-04-16T05:42:57.109Z,63.92
2023-04-16T05:45:59.104Z,63.04
2023-04-16T05:49:00.998Z,62.26
2023-04-16T05:52:06.338Z,62.25
2023-04-16T05:55:08.535Z,61.66
2023-04-16T05:58:10.623Z,60.71
2023-04-16T06:01:12.636Z,60.18
2023-04-16T06:04:14.777Z,60.84
2023-04-16T06:07:16.872Z,60.72
2023-04-16T06:10:18.770Z,60.11
2023-04-16T06:13:20.760Z,59.40
2023-04-16T06:16:22.633Z,59.33
2023-04-16T06:19:24.600Z,59.03
2023-04-16T06:22:26.894Z,57.99
2023-04-16T06:25:28.753Z,57.49
2023-04-16T06:28:30.733Z,57.17
2023-04-16T06:31:32.690Z,56.80
2023-04-16T06:34:34.660Z,55.18
2023-04-16T06:37:36.554Z,54.21
2023-04-16T06:40:38.431Z,54.68
2023-04-16T06:43:40.501Z,54.47
2023-04-16T06:46:42.328Z,54.46
2023-04-16T06:49:44.383Z,54.00
2023-04-16T06:52:46.334Z,53.55
2023-04-16T06:55:48.254Z,53.39
2023-04-16T06:58:50.868Z,52.31
2023-04-16T07:01:55.989Z,51.89
2023-04-16T07:04:57.961Z,52.62
2023-04-16T07:07:59.937Z,51.74
2023-04-16T07:11:02.136Z,52.08
2023-04-16T07:14:04.022Z,51.21
2023-04-16T07:17:06.060Z,51.57
2023-04-16T07:20:08.837Z,51.91
2023-04-16T07:23:10.662Z,51.97
2023-04-16T07:26:12.458Z,52.85
2023-04-16T07:29:14.282Z,50.93
2023-04-16T07:32:16.287Z,51.38
2023-04-16T07:35:18.316Z,50.53
2023-04-16T07:38:20.192Z,50.55
2023-04-16T07:41:22.200Z,50.56
2023-04-16T07:44:23.996Z,51.29
2023-04-16T07:47:27.203Z,51.09
2023-04-16T07:50:29.100Z,50.34
2023-04-16T07:53:31.105Z,50.01
2023-04-16T07:56:33.061Z,50.02
2023-04-16T07:59:34.958Z,49.54
2023-04-16T08:02:37.233Z,48.79
2023-04-16T08:05:39.199Z,49.53
2023-04-16T08:08:42.060Z,48.87
2023-04-16T08:11:43.878Z,48.06
2023-04-16T08:14:45.948Z,48.81
2023-04-16T08:17:47.861Z,48.80
2023-04-16T08:20:49.808Z,49.00
2023-04-16T08:23:51.678Z,48.51
2023-04-16T08:26:53.508Z,49.23
2023-04-16T08:29:55.398Z,46.44
2023-04-16T08:32:57.784Z,48.07
2023-04-16T08:35:59.605Z,47.61
2023-04-16T08:39:01.552Z,47.18
2023-04-16T08:42:06.247Z,46.18
2023-04-16T08:45:17.349Z,46.72
2023-04-16T08:48:22.172Z,46.38
2023-04-16T08:51:25.178Z,45.63
2023-04-16T08:54:36.025Z,46.35
2023-04-16T08:57:44.911Z,45.68
2023-04-16T09:00:48.585Z,45.86
2023-04-16T09:03:51.875Z,45.12
2023-04-16T09:06:55.865Z,44.78
2023-04-16T09:10:00.024Z,45.15
2023-04-16T09:13:01.977Z,45.92
2023-04-16T09:16:04.363Z,45.44
2023-04-16T09:19:06.177Z,45.19
2023-04-16T09:22:08.455Z,44.46
2023-04-16T09:25:11.411Z,44.54
2023-04-16T09:28:13.370Z,44.28
2023-04-16T09:31:16.975Z,44.34
2023-04-16T09:34:18.923Z,46.12
2023-04-16T09:37:21.172Z,43.93
2023-04-16T09:40:27.514Z,44.28
2023-04-16T09:43:29.549Z,45.12
2023-04-16T09:46:36.456Z,44.32
2023-04-16T09:49:44.858Z,43.38
2023-04-16T09:52:53.367Z,43.22
2023-04-16T09:56:05.148Z,42.78
2023-04-16T09:59:07.191Z,43.99
2023-04-16T10:02:15.492Z,44.13
2023-04-16T10:05:20.284Z,43.30
2023-04-16T10:08:24.113Z,43.54
2023-04-16T10:11:26.386Z,42.32
2023-04-16T10:14:28.375Z,43.21
2023-04-16T10:17:31.685Z,43.63
2023-04-16T10:20:33.679Z,42.01
2023-04-16T10:23:35.649Z,42.41
2023-04-16T10:26:37.861Z,42.67
2023-04-16T10:29:40.270Z,41.68
2023-04-16T10:32:42.705Z,42.82
2023-04-16T10:35:52.255Z,42.67
2023-04-16T10:39:00.925Z,43.46
2023-04-16T10:42:12.976Z,43.63
2023-04-16T10:45:14.967Z,43.16
2023-04-16T10:48:19.064Z,44.17
2023-04-16T10:51:32.724Z,44.03
2023-04-16T10:54:36.042Z,43.70
2023-04-16T10:57:38.034Z,42.90
2023-04-16T11:00:52.370Z,43.48
2023-04-16T11:03:54.745Z,43.92
2023-04-16T11:07:14.677Z,42.80
2023-04-16T11:10:16.686Z,43.04
2023-04-16T11:13:19.963Z,42.17
2023-04-16T11:16:21.812Z,42.77
2023-04-16T11:19:23.828Z,42.86
2023-04-16T11:22:26.706Z,43.21
2023-04-16T11:25:30.481Z,41.58
2023-04-16T11:28:34.011Z,41.31
2023-04-16T11:31:35.955Z,41.10
2023-04-16T11:34:46.026Z,40.27
2023-04-16T11:37:48.860Z,40.65
2023-04-16T11:40:51.870Z,40.32
2023-04-16T11:43:53.750Z,40.65
2023-04-16T11:46:55.790Z,41.10
2023-04-16T11:49:58.332Z,41.21
2023-04-16T11:53:04.976Z,41.36
2023-04-16T11:56:07.215Z,40.28
2023-04-16T11:59:13.718Z,40.56
2023-04-16T12:02:16.237Z,40.95
2023-04-16T12:05:41.575Z,40.03
2023-04-16T12:08:43.559Z,40.09
2023-04-16T12:11:45.625Z,39.20
2023-04-16T12:14:51.575Z,39.49
2023-04-16T12:18:07.311Z,39.19
2023-04-16T12:21:10.416Z,39.27
2023-04-16T12:24:14.955Z,39.31
2023-04-16T12:27:16.782Z,40.06
2023-04-16T12:30:20.783Z,39.45
2023-04-16T12:33:22.896Z,39.70
2023-04-16T12:36:24.812Z,39.23
2023-04-16T12:39:26.756Z,40.48
2023-04-16T12:42:35.076Z,40.10
2023-04-16T12:45:38.382Z,39.77
2023-04-16T12:48:40.274Z,39.86
2023-04-16T12:51:42.336Z,40.08
2023-04-16T12:54:44.220Z,40.18
2023-04-16T12:57:48.874Z,40.35
2023-04-16T13:00:50.857Z,39.86
2023-04-16T13:03:53.031Z,40.61
2023-04-16T13:06:54.998Z,39.97
2023-04-16T13:09:56.808Z,40.32
2023-04-16T13:12:58.729Z,40.21
2023-04-16T13:16:00.705Z,40.19
2023-04-16T13:19:02.573Z,41.00
2023-04-16T13:22:05.750Z,41.14
2023-04-16T13:25:08.375Z,40.64
2023-04-16T13:28:10.570Z,40.58
2023-04-16T13:31:12.519Z,40.23
2023-04-16T13:34:14.644Z,40.61
2023-04-16T13:37:17.073Z,40.54
2023-04-16T13:40:18.995Z,40.60
2023-04-16T13:43:22.367Z,40.51
2023-04-16T13:46:24.370Z,40.56
2023-04-16T13:49:26.423Z,40.87
2023-04-16T13:52:28.360Z,39.98
2023-04-16T13:55:32.065Z,40.05
2023-04-16T13:58:34.066Z,40.90
2023-04-16T14:01:35.982Z,40.87
2023-04-16T14:04:37.928Z,41.49
2023-04-16T14:07:39.770Z,40.44
2023-04-16T14:10:41.634Z,40.46
2023-04-16T14:13:43.490Z,40.25
2023-04-16T14:16:45.639Z,40.99
2023-04-16T14:19:47.763Z,40.87
2023-04-16T14:22:49.861Z,40.13
2023-04-16T14:25:51.906Z,39.78
2023-04-16T14:28:53.749Z,39.17
2023-04-16T14:31:55.652Z,38.82
2023-04-16T14:34:57.680Z,38.31
2023-04-16T14:37:59.697Z,37.92
2023-04-16T14:41:01.682Z,37.62
2023-04-16T14:44:06.154Z,38.01
2023-04-16T14:47:08.651Z,38.25
2023-04-16T14:50:11.467Z,38.05
2023-04-16T14:53:13.533Z,38.35
2023-04-16T14:56:15.594Z,38.71
2023-04-16T14:59:17.498Z,39.17
2023-04-16T15:02:19.696Z,39.77
2023-04-16T15:05:22.128Z,38.60
2023-04-16T15:08:24.478Z,38.35
2023-04-16T15:11:26.778Z,38.54
2023-04-16T15:14:28.691Z,38.47
2023-04-16T15:17:30.739Z,38.76
2023-04-16T15:20:32.939Z,38.71
2023-04-16T15:23:34.871Z,38.44
2023-04-16T15:26:36.821Z,38.90
2023-04-16T15:29:38.784Z,39.08
2023-04-16T15:32:40.804Z,39.27
2023-04-16T15:35:42.774Z,39.08
2023-04-16T15:38:44.589Z,39.00
2023-04-16T15:41:59.824Z,39.08
2023-04-16T15:45:03.678Z,38.87
2023-04-16T15:48:06.296Z,39.32
2023-04-16T15:51:08.192Z,39.19
2023-04-16T15:54:10.053Z,39.61
2023-04-16T15:57:11.926Z,39.60
2023-04-16T16:00:15.071Z,39.79
2023-04-16T16:03:21.641Z,39.81
2023-04-16T16:06:23.898Z,40.00
2023-04-16T16:09:26.586Z,39.40
2023-04-16T16:12:28.920Z,39.78
2023-04-16T16:15:31.833Z,39.34
2023-04-16T16:18:33.798Z,39.41
2023-04-16T16:21:35.696Z,39.54
2023-04-16T16:24:37.579Z,39.55
2023-04-16T16:27:40.768Z,39.65
2023-04-16T16:30:42.649Z,39.65
2023-04-16T16:33:44.547Z,39.55
2023-04-16T16:36:47.010Z,39.45
2023-04-16T16:39:48.901Z,39.69
2023-04-16T16:42:51.017Z,39.78
2023-04-16T16:45:53.068Z,40.00
2023-04-16T16:48:54.972Z,40.03
2023-04-16T16:51:57.682Z,40.05
2023-04-16T16:54:59.591Z,40.10
2023-04-16T16:58:01.582Z,40.23
2023-04-16T17:01:03.853Z,40.54
2023-04-16T17:04:05.964Z,40.93
2023-04-16T17:07:07.949Z,40.47
2023-04-16T17:10:13.160Z,40.85
2023-04-16T17:13:19.808Z,41.04
2023-04-16T17:16:21.981Z,41.24
2023-04-16T17:19:23.974Z,41.47
2023-04-16T17:22:25.914Z,41.52
2023-04-16T17:25:27.863Z,41.49
2023-04-16T17:28:29.751Z,41.82
2023-04-16T17:31:31.837Z,41.89
2023-04-16T17:34:34.518Z,42.16
2023-04-16T17:37:36.493Z,42.11
2023-04-16T17:40:38.445Z,42.41
2023-04-16T17:43:40.295Z,42.60
2023-04-16T17:46:42.258Z,42.94
2023-04-16T17:49:44.512Z,42.97
2023-04-16T17:52:47.685Z,43.04
2023-04-16T17:55:54.673Z,43.42
2023-04-16T17:58:58.520Z,43.44
2023-04-16T18:02:00.630Z,43.77
2023-04-16T18:05:02.568Z,44.07
2023-04-16T18:08:04.588Z,43.78
2023-04-16T18:11:08.350Z,44.19
2023-04-16T18:14:12.295Z,44.07
2023-04-16T18:17:14.418Z,44.29
2023-04-16T18:20:19.529Z,44.42
2023-04-16T18:23:21.597Z,44.67
2023-04-16T18:26:23.398Z,44.77
2023-04-16T18:29:25.632Z,44.99
2023-04-16T18:32:31.164Z,45.45
2023-04-16T18:35:33.332Z,45.42
2023-04-16T18:38:35.218Z,45.78
2023-04-16T18:41:37.446Z,46.17
2023-04-16T18:44:39.315Z,46.31
2023-04-16T18:47:41.739Z,46.23
2023-04-16T18:50:43.635Z,46.58
2023-04-16T18:53:45.931Z,46.65
2023-04-16T18:56:47.835Z,47.16
2023-04-16T18:59:49.761Z,47.15
2023-04-16T19:02:51.700Z,47.35
2023-04-16T19:05:54.129Z,47.62
2023-04-16T19:08:56.075Z,47.77
2023-04-16T19:11:58.475Z,48.31
2023-04-16T19:15:00.581Z,48.08
2023-04-16T19:18:02.551Z,48.61
2023-04-16T19:21:05.622Z,48.06
2023-04-16T19:24:07.477Z,48.64
2023-04-16T19:27:09.340Z,48.60
2023-04-16T19:30:11.469Z,48.85
2023-04-16T19:33:13.599Z,48.92
2023-04-16T19:36:15.476Z,49.10
2023-04-16T19:39:17.348Z,49.29
2023-04-16T19:42:19.151Z,49.84
2023-04-16T19:45:25.875Z,49.37
2023-04-16T19:48:27.886Z,49.81
2023-04-16T19:51:29.844Z,49.70
2023-04-16T19:54:33.662Z,49.97
2023-04-16T19:57:35.637Z,49.68
2023-04-16T20:00:39.020Z,50.15
2023-04-16T20:03:41.134Z,50.33
2023-04-16T20:06:43.042Z,50.18
2023-04-16T20:09:45.101Z,50.34
2023-04-16T20:12:47.346Z,50.46
2023-04-16T20:15:53.960Z,50.60
2023-04-16T20:18:55.996Z,50.82
2023-04-16T20:21:57.930Z,50.90
2023-04-16T20:24:59.814Z,50.81
2023-04-16T20:28:01.786Z,51.13
2023-04-16T20:31:03.733Z,51.28
2023-04-16T20:34:05.724Z,51.27
2023-04-16T20:37:07.642Z,51.59
2023-04-16T20:40:10.949Z,51.54
2023-04-16T20:43:14.413Z,51.94
2023-04-16T20:46:17.296Z,51.89
2023-04-16T20:49:19.586Z,52.23
2023-04-16T20:52:24.411Z,52.03
2023-04-16T20:55:26.677Z,52.31
2023-04-16T20:58:29.209Z,52.64
2023-04-16T21:01:31.121Z,52.67
2023-04-16T21:04:33.053Z,52.76
2023-04-16T21:07:34.930Z,53.05
2023-04-16T21:10:36.834Z,53.48
2023-04-16T21:13:38.649Z,53.47
2023-04-16T21:16:40.791Z,53.66
2023-04-16T21:19:42.761Z,53.82
2023-04-16T21:22:44.772Z,53.71
2023-04-16T21:25:46.655Z,54.28
2023-04-16T21:28:48.527Z,54.03
2023-04-16T21:31:50.807Z,54.13
2023-04-16T21:34:52.784Z,54.41
2023-04-16T21:37:54.618Z,54.48
2023-04-16T21:40:56.969Z,54.54
2023-04-16T21:43:58.895Z,54.47
2023-04-16T21:47:00.781Z,54.02
2023-04-16T21:50:03.362Z,54.16
2023-04-16T21:53:06.760Z,54.65
2023-04-16T21:56:08.690Z,54.32
2023-04-16T21:59:10.830Z,54.41
2023-04-16T22:02:12.912Z,54.70
2023-04-16T22:05:14.932Z,55.19
2023-04-16T22:08:23.966Z,54.75
2023-04-16T22:11:26.776Z,55.07
2023-04-16T22:14:29.726Z,55.28
2023-04-16T22:17:31.497Z,55.51
2023-04-16T22:20:39.040Z,55.25
2023-04-16T22:23:41.237Z,55.23
2023-04-16T22:26:43.107Z,55.31
2023-04-16T22:29:45.300Z,55.13
2023-04-16T22:32:47.325Z,55.56
2023-04-16T22:35:49.240Z,55.25
2023-04-16T22:38:51.117Z,55.75
2023-04-16T22:41:53.025Z,55.37
2023-04-16T22:44:55.011Z,55.40
2023-04-16T22:47:56.869Z,55.58
2023-04-16T22:50:58.857Z,55.53
2023-04-16T22:54:00.951Z,55.89
2023-04-16T22:57:02.766Z,55.67
2023-04-16T23:00:11.387Z,55.80
2023-04-16T23:03:13.504Z,55.71
2023-04-16T23:06:15.827Z,56.42
2023-04-16T23:09:17.837Z,56.32
2023-04-16T23:12:19.647Z,56.58
2023-04-16T23:15:21.588Z,57.04
2023-04-16T23:18:23.504Z,57.21
2023-04-16T23:21:26.044Z,57.66
2023-04-16T23:24:28.013Z,57.63
2023-04-16T23:27:29.950Z,58.00
2023-04-16T23:30:32.219Z,58.30
2023-04-16T23:33:34.969Z,58.77
2023-04-16T23:36:36.793Z,58.70
2023-04-16T23:39:38.797Z,59.02
2023-04-16T23:42:40.783Z,59.12
2023-04-16T23:45:42.633Z,59.22
2023-04-16T23:48:44.550Z,59.17
2023-04-16T23:51:46.396Z,59.01
2023-04-16T23:54:48.315Z,59.34
2023-04-16T23:57:50.251Z,58.99
